Kezdőlap
METAR-TAF:

METAR-TAF

Repülőterek :

Camiri, Bolívia

földrajzi szélesség: 20-00S, földrajzi hosszúság: 063-32W, magasság: 798 m

Jelenlegi meteorológiai megfigyelések

A jelentés 9 órával és 17 perccel ezelõtt készült, 22:00 UTC
Szélcsend
Hőmérséklet 10°C
Páratartalom 82%
Légköri nyomás 1028 hPa
Látótávolság 10 km, vagy több
Szakadozott felhőzet 3600 lábon
Borult 7000 lábon

METAR: SLCA 272200Z 00000KT 9999 BKN036 OVC070 10/07 Q1028

Idő: 03:17 (07:17 UTC)


TAF: hiányzik

Meteorológiai megfigyelések és előrejelzések több, mint 4000 repülőtéren (METAR és TAF jelentéseket).

A térképen piros és sárga pontok jelzik az elérhető meteorológiai állomásokat.

Mozgassa az egeret a pont fölött, hogy megjelenjen az állomás neve.

Azután kattintson az időjárási megfigyelések és előrejelzések megtekintéséhez.

A térkép megváltoztatása: kattintson a fekete keresztel jelölt zöld gombra ráközelítéshez, a vonallal jelölt zöld gombra távolításhoz, vagy a zöld nyilakra a szomszédos térképek eléréséhez.


METAR-TAF: